createdAt,value
2022-08-16T00:06:15.615Z,100645.69
2022-08-16T00:08:42.120Z,100644.84
2022-08-16T00:11:15.362Z,100646.09
2022-08-16T00:13:43.229Z,100651.13
2022-08-16T00:17:00.988Z,100656.22
2022-08-16T00:19:06.291Z,100654.69
2022-08-16T00:21:33.377Z,100659.13
2022-08-16T00:24:00.179Z,100662.06
2022-08-16T00:26:35.510Z,100678.50
2022-08-16T00:29:16.037Z,100673.66
2022-08-16T00:32:01.017Z,100682.94
2022-08-16T00:34:43.744Z,100680.81
2022-08-16T00:37:20.495Z,100692.84
2022-08-16T00:39:58.631Z,100699.56
2022-08-16T00:42:31.701Z,100695.78
2022-08-16T00:45:36.532Z,100695.78
2022-08-16T00:48:28.672Z,100704.81
2022-08-16T00:50:55.554Z,100700.81
2022-08-16T00:53:22.933Z,100707.56
2022-08-16T00:55:52.776Z,100706.72
2022-08-16T00:58:34.650Z,100703.78
2022-08-16T01:01:02.823Z,100701.88
2022-08-16T01:03:31.685Z,100697.88
2022-08-16T01:06:40.460Z,100708.63
2022-08-16T01:08:52.171Z,100711.78
2022-08-16T01:11:19.586Z,100708.41
2022-08-16T01:13:47.092Z,100716.22
2022-08-16T01:16:20.901Z,100716.84
2022-08-16T01:18:59.353Z,100712.59
2022-08-16T01:21:33.720Z,100721.03
2022-08-16T01:24:44.578Z,100728.19
2022-08-16T01:27:44.639Z,100731.75
2022-08-16T01:30:26.220Z,100735.56
2022-08-16T01:33:02.030Z,100737.03
2022-08-16T01:35:44.724Z,100734.72
2022-08-16T01:38:36.010Z,100730.72
2022-08-16T01:41:08.032Z,100728.63
2022-08-16T01:43:37.034Z,100734.47
2022-08-16T01:46:30.103Z,100734.09
2022-08-16T01:49:12.199Z,100733.66
2022-08-16T01:51:43.670Z,100727.34
2022-08-16T01:54:13.250Z,100720.19
2022-08-16T01:56:42.037Z,100732.78
2022-08-16T01:59:15.720Z,100725.84
2022-08-16T02:01:44.492Z,100723.47
2022-08-16T02:04:48.746Z,100720.09
2022-08-16T02:07:11.180Z,100718.38
2022-08-16T02:09:38.933Z,100710.59
2022-08-16T02:12:43.612Z,100717.09
2022-08-16T02:14:53.610Z,100717.50
2022-08-16T02:17:20.203Z,100713.72
2022-08-16T02:19:58.970Z,100720.88
2022-08-16T02:22:35.733Z,100715.22
2022-08-16T02:25:14.669Z,100718.38
2022-08-16T02:27:43.888Z,100714.81
2022-08-16T02:30:37.014Z,100715.25
2022-08-16T02:33:07.519Z,100710.28
2022-08-16T02:35:35.144Z,100710.72
2022-08-16T02:38:21.366Z,100711.16
2022-08-16T02:40:48.340Z,100710.31
2022-08-16T02:43:16.044Z,100702.94
2022-08-16T02:45:42.613Z,100706.09
2022-08-16T02:48:29.868Z,100705.03
2022-08-16T02:51:06.359Z,100700.00
2022-08-16T02:53:40.205Z,100699.78
2022-08-16T02:56:09.894Z,100694.50
2022-08-16T02:58:37.055Z,100696.41
2022-08-16T03:01:03.763Z,100690.09
2022-08-16T03:04:39.498Z,100693.25
2022-08-16T03:06:39.057Z,100692.41
2022-08-16T03:09:13.062Z,100682.94
2022-08-16T03:11:41.085Z,100695.97
2022-08-16T03:14:08.476Z,100692.41
2022-08-16T03:16:39.021Z,100687.38
2022-08-16T03:19:09.387Z,100686.75
2022-08-16T03:21:37.382Z,100677.03
2022-08-16T03:24:06.086Z,100674.94
2022-08-16T03:26:52.626Z,100671.38
2022-08-16T03:29:19.129Z,100673.47
2022-08-16T03:31:45.663Z,100664.63
2022-08-16T03:34:19.170Z,100666.75
2022-08-16T03:36:47.389Z,100665.69
2022-08-16T03:39:15.077Z,100668.84
2022-08-16T03:41:50.043Z,100667.16
2022-08-16T03:44:43.635Z,100669.06
2022-08-16T03:47:04.068Z,100674.75
2022-08-16T03:49:36.700Z,100673.47
2022-08-16T03:52:04.148Z,100681.06
2022-08-16T03:54:30.687Z,100682.09
2022-08-16T03:56:58.597Z,100683.09
2022-08-16T03:59:25.708Z,100675.09
2022-08-16T04:01:56.225Z,100683.09
2022-08-16T04:04:25.094Z,100683.72
2022-08-16T04:07:03.390Z,100687.34
2022-08-16T04:09:35.543Z,100689.66
2022-08-16T04:12:11.159Z,100689.47
2022-08-16T04:14:51.691Z,100692.84
2022-08-16T04:17:18.431Z,100693.25
2022-08-16T04:19:46.704Z,100697.47
2022-08-16T04:22:13.765Z,100694.97
2022-08-16T04:24:54.187Z,100690.97
2022-08-16T04:27:21.306Z,100697.25
2022-08-16T04:29:47.883Z,100704.19
2022-08-16T04:32:19.617Z,100704.41
2022-08-16T04:34:46.927Z,100700.84
2022-08-16T04:37:14.276Z,100700.81
2022-08-16T04:39:46.701Z,100702.91
2022-08-16T04:42:15.110Z,100713.03
2022-08-16T04:44:54.140Z,100710.09
2022-08-16T04:47:24.736Z,100714.72
2022-08-16T04:49:52.753Z,100715.13
2022-08-16T04:52:32.641Z,100722.31
2022-08-16T04:55:37.644Z,100729.66
2022-08-16T04:58:44.946Z,100723.56
2022-08-16T05:00:52.873Z,100727.94
2022-08-16T05:03:19.666Z,100731.78
2022-08-16T05:05:59.499Z,100723.13
2022-08-16T05:08:31.751Z,100730.06
2022-08-16T05:11:05.414Z,100734.03
2022-08-16T05:13:41.050Z,100739.09
2022-08-16T05:16:30.298Z,100744.13
2022-08-16T05:18:59.516Z,100750.44
2022-08-16T05:21:28.384Z,100746.22
2022-08-16T05:24:06.076Z,100749.59
2022-08-16T05:26:34.513Z,100757.13
2022-08-16T05:29:04.428Z,100750.81
2022-08-16T05:31:31.565Z,100745.34
2022-08-16T05:34:00.086Z,100755.28
2022-08-16T05:36:33.757Z,100762.22
2022-08-16T05:39:08.867Z,100768.53
2022-08-16T05:41:44.613Z,100767.06
2022-08-16T05:44:23.415Z,100766.84
2022-08-16T05:46:57.700Z,100769.38
2022-08-16T05:49:38.219Z,100765.16
2022-08-16T05:52:11.495Z,100774.84
2022-08-16T05:54:46.568Z,100775.66
2022-08-16T05:57:14.471Z,100776.13
2022-08-16T05:59:41.812Z,100780.28
2022-08-16T06:02:08.493Z,100772.91
2022-08-16T06:04:37.550Z,100783.38
2022-08-16T06:07:08.743Z,100774.31
2022-08-16T06:09:43.324Z,100783.56
2022-08-16T06:12:27.005Z,100789.84
2022-08-16T06:15:07.732Z,100775.47
2022-08-16T06:17:42.609Z,100770.78
2022-08-16T06:20:23.167Z,100767.81
2022-08-16T06:22:57.784Z,100778.72
2022-08-16T06:25:35.816Z,100770.75
2022-08-16T06:28:08.619Z,100776.88
2022-08-16T06:30:43.954Z,100777.75
2022-08-16T06:33:22.326Z,100780.28
2022-08-16T06:35:50.807Z,100777.94
2022-08-16T06:38:33.413Z,100776.47
2022-08-16T06:41:04.021Z,100777.94
2022-08-16T06:43:31.153Z,100786.13
2022-08-16T06:45:59.944Z,100789.22
2022-08-16T06:48:32.674Z,100790.66
2022-08-16T06:51:09.104Z,100797.00
2022-08-16T06:53:36.729Z,100791.50
2022-08-16T06:56:14.536Z,100787.03
2022-08-16T06:58:49.769Z,100790.31
2022-08-16T07:01:17.624Z,100801.25
2022-08-16T07:03:54.922Z,100796.53
2022-08-16T07:06:26.506Z,100797.47
2022-08-16T07:08:54.135Z,100791.94
2022-08-16T07:11:20.876Z,100786.44
2022-08-16T07:14:26.274Z,100781.78
2022-08-16T07:16:58.104Z,100786.53
2022-08-16T07:20:01.684Z,100798.78
2022-08-16T07:22:37.834Z,100800.81
2022-08-16T07:24:59.440Z,100800.28
2022-08-16T07:27:26.015Z,100805.34
2022-08-16T07:29:55.624Z,100806.78
2022-08-16T07:32:29.234Z,100809.97
2022-08-16T07:34:56.327Z,100804.47
2022-08-16T07:37:23.256Z,100813.38
2022-08-16T07:39:50.785Z,100807.22
2022-08-16T07:42:25.838Z,100811.00
2022-08-16T07:44:55.359Z,100810.22
2022-08-16T07:47:24.712Z,100816.91
2022-08-16T07:49:59.418Z,100823.94
2022-08-16T07:52:29.816Z,100834.63
2022-08-16T07:54:57.609Z,100827.91
2022-08-16T07:57:24.670Z,100826.06
2022-08-16T07:59:51.457Z,100827.81
2022-08-16T08:02:19.762Z,100827.66
2022-08-16T08:04:48.095Z,100832.13
2022-08-16T08:07:16.194Z,100820.31
2022-08-16T08:09:43.882Z,100829.56
2022-08-16T08:12:31.963Z,100827.38
2022-08-16T08:14:58.422Z,100828.38
2022-08-16T08:17:25.259Z,100821.25
2022-08-16T08:20:12.329Z,100812.38
2022-08-16T08:22:39.441Z,100820.16
2022-08-16T08:25:07.323Z,100815.66
2022-08-16T08:27:35.132Z,100824.38
2022-08-16T08:30:49.238Z,100820.31
2022-08-16T08:32:58.022Z,100828.88
2022-08-16T08:35:28.391Z,100833.34
2022-08-16T08:37:56.497Z,100828.06
2022-08-16T08:40:27.410Z,100840.09
2022-08-16T08:43:00.623Z,100843.31
2022-08-16T08:45:53.654Z,100841.47
2022-08-16T08:48:33.863Z,100845.69
2022-08-16T08:51:05.582Z,100842.47
2022-08-16T08:53:36.211Z,100853.88
2022-08-16T08:56:23.123Z,100852.38
2022-08-16T08:58:54.950Z,100854.06
2022-08-16T09:01:36.460Z,100856.91
2022-08-16T09:04:09.401Z,100858.41
2022-08-16T09:06:43.744Z,100859.50
2022-08-16T09:09:16.536Z,100869.34
2022-08-16T09:11:47.311Z,100861.72
2022-08-16T09:14:23.868Z,100862.50
2022-08-16T09:17:02.292Z,100867.00
2022-08-16T09:19:32.003Z,100862.41
2022-08-16T09:22:00.326Z,100872.09
2022-08-16T09:24:46.955Z,100870.19
2022-08-16T09:27:13.447Z,100876.84
2022-08-16T09:29:44.378Z,100878.75
2022-08-16T09:32:12.326Z,100880.50
2022-08-16T09:34:38.941Z,100862.41
2022-08-16T09:37:17.739Z,100878.59
2022-08-16T09:39:50.098Z,100888.06
2022-08-16T09:42:19.062Z,100886.22
2022-08-16T09:45:11.226Z,100886.38
2022-08-16T09:47:56.940Z,100889.94
2022-08-16T09:50:22.717Z,100903.34
2022-08-16T09:52:50.021Z,100894.88
2022-08-16T09:55:16.712Z,100893.28
2022-08-16T09:57:43.450Z,100893.50
2022-08-16T10:00:44.809Z,100894.59
2022-08-16T10:03:06.297Z,100899.91
2022-08-16T10:05:37.896Z,100895.25
2022-08-16T10:08:26.088Z,100894.94
2022-08-16T10:11:10.960Z,100897.16
2022-08-16T10:13:39.599Z,100894.50
2022-08-16T10:18:48.286Z,100904.09
2022-08-16T10:21:25.677Z,100901.97
2022-08-16T10:23:56.145Z,100905.19
2022-08-16T10:27:17.213Z,100904.59
2022-08-16T10:29:13.655Z,100904.75
2022-08-16T10:31:53.461Z,100901.06
2022-08-16T10:34:31.773Z,100899.66
2022-08-16T10:37:00.750Z,100896.88
2022-08-16T10:39:40.854Z,100906.38
2022-08-16T10:42:10.296Z,100893.81
2022-08-16T10:44:39.846Z,100888.56
2022-08-16T10:47:09.985Z,100889.56
2022-08-16T10:49:39.270Z,100895.88
2022-08-16T10:52:18.838Z,100901.16
2022-08-16T10:57:33.008Z,100905.47
2022-08-16T10:59:59.979Z,100902.44
2022-08-16T11:02:58.779Z,100893.81
2022-08-16T11:05:16.356Z,100893.94
2022-08-16T11:07:52.382Z,100896.81
2022-08-16T11:19:05.766Z,100901.72
2022-08-16T11:22:39.691Z,100889.63
2022-08-16T11:24:41.392Z,100899.19
2022-08-16T11:27:23.301Z,100902.69
2022-08-16T11:29:54.831Z,100905.28
2022-08-16T11:32:22.675Z,100905.97
2022-08-16T11:35:15.702Z,100901.59
2022-08-16T11:40:40.867Z,100905.28
2022-08-16T11:43:10.944Z,100903.88
2022-08-16T11:45:37.720Z,100907.03
2022-08-16T11:48:05.839Z,100895.50
2022-08-16T11:50:33.806Z,100911.06
2022-08-16T11:53:02.475Z,100912.59
2022-08-16T11:55:31.227Z,100909.41
2022-08-16T11:57:57.839Z,100911.59
2022-08-16T12:00:33.539Z,100919.13
2022-08-16T12:03:14.952Z,100917.66
2022-08-16T12:05:43.965Z,100916.34
2022-08-16T12:08:11.106Z,100918.28
2022-08-16T12:10:40.700Z,100928.00
2022-08-16T12:13:10.548Z,100922.09
2022-08-16T12:15:37.204Z,100923.81
2022-08-16T12:18:04.676Z,100928.00
2022-08-16T12:20:35.663Z,100926.66
2022-08-16T12:23:02.673Z,100936.03
2022-08-16T12:25:32.094Z,100925.06
2022-08-16T12:27:59.035Z,100936.34
2022-08-16T12:30:33.673Z,100933.38
2022-08-16T12:33:05.510Z,100941.66
2022-08-16T12:35:38.247Z,100939.50
2022-08-16T12:38:38.169Z,100940.84
2022-08-16T12:40:56.985Z,100943.75
2022-08-16T12:43:24.283Z,100946.00
2022-08-16T12:45:53.155Z,100931.94
2022-08-16T12:48:42.389Z,100932.50
2022-08-16T12:51:19.681Z,100940.38
2022-08-16T12:53:47.247Z,100937.97
2022-08-16T12:56:14.252Z,100938.97
2022-08-16T12:58:48.614Z,100929.72
2022-08-16T13:01:19.530Z,100929.72
2022-08-16T13:03:50.212Z,100923.25
2022-08-16T13:06:29.883Z,100934.69
2022-08-16T13:09:02.452Z,100929.22
2022-08-16T13:11:35.614Z,100925.41
2022-08-16T13:14:05.286Z,100929.88
2022-08-16T13:16:31.965Z,100921.47
2022-08-16T13:19:00.752Z,100921.13
2022-08-16T13:21:27.310Z,100926.53
2022-08-16T13:23:55.440Z,100936.16
2022-08-16T13:26:23.753Z,100931.38
2022-08-16T13:28:50.347Z,100940.81
2022-08-16T13:31:17.104Z,100939.97
2022-08-16T13:33:43.924Z,100933.91
2022-08-16T13:36:21.254Z,100928.38
2022-08-16T13:38:59.568Z,100925.81
2022-08-16T13:41:30.261Z,100932.88
2022-08-16T13:43:59.294Z,100925.03
2022-08-16T13:46:26.534Z,100908.81
2022-08-16T13:48:53.065Z,100910.31
2022-08-16T13:51:20.690Z,100912.59
2022-08-16T13:53:54.572Z,100910.59
2022-08-16T13:56:37.727Z,100910.59
2022-08-16T13:59:19.143Z,100909.53
2022-08-16T14:01:55.389Z,100912.72
2022-08-16T14:04:26.532Z,100918.75
2022-08-16T14:06:53.281Z,100917.06
2022-08-16T14:09:21.421Z,100915.41
2022-08-16T14:11:49.572Z,100917.44
2022-08-16T14:14:28.840Z,100921.09
2022-08-16T14:17:01.022Z,100921.03
2022-08-16T14:19:29.430Z,100917.06
2022-08-16T14:22:15.491Z,100914.06
2022-08-16T14:24:47.038Z,100911.41
2022-08-16T14:27:15.722Z,100901.47
2022-08-16T14:29:43.560Z,100913.47
2022-08-16T14:32:13.099Z,100904.59
2022-08-16T14:34:58.557Z,100901.59
2022-08-16T14:37:25.522Z,100900.41
2022-08-16T14:39:54.887Z,100907.38
2022-08-16T14:42:23.235Z,100906.88
2022-08-16T14:44:50.526Z,100914.19
2022-08-16T14:47:17.439Z,100911.44
2022-08-16T14:49:44.131Z,100920.19
2022-08-16T14:52:20.344Z,100904.75
2022-08-16T14:55:02.238Z,100914.69
2022-08-16T14:57:28.918Z,100909.75
2022-08-16T14:59:55.430Z,100891.63
2022-08-16T15:02:34.474Z,100891.28
2022-08-16T15:05:04.359Z,100894.72
2022-08-16T15:07:35.024Z,100890.53
2022-08-16T15:10:03.439Z,100891.38
2022-08-16T15:12:33.601Z,100896.22
2022-08-16T15:15:04.597Z,100899.69
2022-08-16T15:17:40.696Z,100898.84
2022-08-16T15:20:08.719Z,100896.94
2022-08-16T15:22:39.273Z,100897.84
2022-08-16T15:25:09.754Z,100897.69
2022-08-16T15:27:36.779Z,100893.47
2022-08-16T15:30:56.921Z,100892.69
2022-08-16T15:32:57.257Z,100886.34
2022-08-16T15:35:24.387Z,100888.28
2022-08-16T15:37:54.385Z,100885.81
2022-08-16T15:40:32.305Z,100883.00
2022-08-16T15:43:02.571Z,100883.16
2022-08-16T15:45:47.837Z,100885.44
2022-08-16T15:48:28.479Z,100884.06
2022-08-16T15:50:57.862Z,100876.16
2022-08-16T15:53:27.344Z,100880.72
2022-08-16T15:55:56.649Z,100877.00
2022-08-16T15:58:35.167Z,100879.47
2022-08-16T16:01:06.868Z,100876.41
2022-08-16T16:03:34.690Z,100881.81
2022-08-16T16:06:03.088Z,100880.59
2022-08-16T16:08:35.442Z,100882.28
2022-08-16T16:11:07.013Z,100874.13
2022-08-16T16:13:34.695Z,100876.16
2022-08-16T16:16:03.504Z,100870.78
2022-08-16T16:18:34.353Z,100872.22
2022-08-16T16:21:06.152Z,100872.47
2022-08-16T16:23:41.040Z,100871.97
2022-08-16T16:26:12.581Z,100869.22
2022-08-16T16:29:05.738Z,100872.34
2022-08-16T16:31:27.256Z,100874.06
2022-08-16T16:33:56.968Z,100877.03
2022-08-16T16:36:28.720Z,100879.66
2022-08-16T16:38:56.490Z,100884.91
2022-08-16T16:41:26.533Z,100882.78
2022-08-16T16:43:54.082Z,100880.25
2022-08-16T16:46:40.600Z,100874.63
2022-08-16T16:49:11.548Z,100875.34
2022-08-16T16:51:40.857Z,100874.06
2022-08-16T16:54:09.315Z,100878.84
2022-08-16T16:56:39.363Z,100873.91
2022-08-16T16:59:13.594Z,100878.00
2022-08-16T17:01:59.562Z,100867.69
2022-08-16T17:04:32.320Z,100872.97
2022-08-16T17:07:01.157Z,100878.00
2022-08-16T17:09:27.919Z,100876.69
2022-08-16T17:11:55.893Z,100883.75
2022-08-16T17:14:33.709Z,100879.56
2022-08-16T17:17:04.203Z,100879.34
2022-08-16T17:19:31.620Z,100865.78
2022-08-16T17:22:01.090Z,100866.00
2022-08-16T17:24:32.002Z,100861.22
2022-08-16T17:27:08.261Z,100863.75
2022-08-16T17:29:35.461Z,100858.19
2022-08-16T17:32:46.874Z,100858.66
2022-08-16T17:35:00.626Z,100863.31
2022-08-16T17:37:42.501Z,100862.81
2022-08-16T17:40:30.187Z,100867.19
2022-08-16T17:43:01.288Z,100864.53
2022-08-16T17:45:28.365Z,100866.91
2022-08-16T17:47:54.933Z,100870.59
2022-08-16T17:50:22.808Z,100871.41
2022-08-16T17:52:53.635Z,100878.44
2022-08-16T17:55:28.607Z,100877.91
2022-08-16T17:57:55.201Z,100877.06
2022-08-16T18:00:23.254Z,100872.56
2022-08-16T18:02:51.792Z,100874.22
2022-08-16T18:05:20.300Z,100882.81
2022-08-16T18:07:47.415Z,100888.56
2022-08-16T18:10:32.711Z,100888.25
2022-08-16T18:13:01.021Z,100887.97
2022-08-16T18:15:28.211Z,100884.50
2022-08-16T18:17:54.936Z,100878.47
2022-08-16T18:20:41.351Z,100887.00
2022-08-16T18:23:15.112Z,100891.28
2022-08-16T18:25:47.000Z,100898.31
2022-08-16T18:28:14.615Z,100885.03
2022-08-16T18:30:41.500Z,100891.34
2022-08-16T18:33:08.153Z,100891.34
2022-08-16T18:35:34.960Z,100896.88
2022-08-16T18:38:01.775Z,100897.31
2022-08-16T18:40:28.822Z,100890.97
2022-08-16T18:43:06.256Z,100888.69
2022-08-16T18:45:36.957Z,100877.09
2022-08-16T18:48:04.775Z,100877.31
2022-08-16T18:50:58.482Z,100876.47
2022-08-16T18:53:20.155Z,100874.25
2022-08-16T18:55:48.282Z,100875.56
2022-08-16T18:58:15.513Z,100878.84
2022-08-16T19:00:55.944Z,100882.28
2022-08-16T19:03:28.237Z,100884.41
2022-08-16T19:05:56.532Z,100890.41
2022-08-16T19:08:23.272Z,100890.16
2022-08-16T19:10:50.984Z,100890.13
2022-08-16T19:13:22.988Z,100900.31
2022-08-16T19:15:52.007Z,100899.38
2022-08-16T19:18:19.451Z,100903.47
2022-08-16T19:20:47.187Z,100910.31
2022-08-16T19:23:17.752Z,100916.69
2022-08-16T19:25:49.695Z,100917.94
2022-08-16T19:28:57.697Z,100924.50
2022-08-16T19:31:20.613Z,100929.38
2022-08-16T19:33:53.754Z,100928.06
2022-08-16T19:36:30.897Z,100938.59
2022-08-16T19:38:58.855Z,100941.72
2022-08-16T19:41:31.753Z,100939.78
2022-08-16T19:43:58.233Z,100930.94
2022-08-16T19:46:24.897Z,100939.97
2022-08-16T19:48:51.934Z,100942.94
2022-08-16T19:51:18.477Z,100945.25
2022-08-16T19:53:45.059Z,100952.91
2022-08-16T19:56:11.832Z,100953.25
2022-08-16T19:58:50.993Z,100951.81
2022-08-16T20:01:25.548Z,100951.41
2022-08-16T20:03:52.092Z,100946.13
2022-08-16T20:06:37.631Z,100948.41
2022-08-16T20:09:05.165Z,100949.22
2022-08-16T20:11:31.750Z,100948.41
2022-08-16T20:13:59.380Z,100950.88
2022-08-16T20:16:26.093Z,100962.28
2022-08-16T20:18:52.643Z,100958.81
2022-08-16T20:21:19.493Z,100966.31
2022-08-16T20:23:46.233Z,100964.81
2022-08-16T20:26:12.749Z,100971.34
2022-08-16T20:28:53.947Z,100971.97
2022-08-16T20:31:22.998Z,100974.75
2022-08-16T20:33:50.450Z,100977.81
2022-08-16T20:36:17.203Z,100973.22
2022-08-16T20:38:46.877Z,100963.88
2022-08-16T20:41:13.839Z,100967.63
2022-08-16T20:43:40.383Z,100967.56
2022-08-16T20:46:06.986Z,100967.09
2022-08-16T20:48:33.516Z,100969.88
2022-08-16T20:51:00.053Z,100977.19
2022-08-16T20:53:26.619Z,100974.19
2022-08-16T20:55:53.124Z,100975.72
2022-08-16T20:58:19.672Z,100978.56
2022-08-16T21:00:47.256Z,100975.75
2022-08-16T21:03:14.120Z,100984.75
2022-08-16T21:05:41.273Z,100992.91
2022-08-16T21:08:26.858Z,100992.09
2022-08-16T21:10:56.303Z,100987.72
2022-08-16T21:13:25.338Z,100972.59
2022-08-16T21:15:52.155Z,100972.94
2022-08-16T21:18:18.658Z,100977.69
2022-08-16T21:20:45.168Z,100966.94
2022-08-16T21:23:11.732Z,100981.16
2022-08-16T21:25:57.708Z,100983.34
2022-08-16T21:28:41.999Z,100992.13
2022-08-16T21:31:14.310Z,100990.34
2022-08-16T21:33:40.945Z,100980.66
2022-08-16T21:36:07.888Z,100979.47
2022-08-16T21:38:34.783Z,100979.72
2022-08-16T21:41:02.879Z,100992.00
2022-08-16T21:43:32.682Z,100993.91
2022-08-16T21:46:01.470Z,100980.81
2022-08-16T21:48:35.119Z,100987.38
2022-08-16T21:51:07.824Z,100998.13
2022-08-16T21:53:35.118Z,100995.22
2022-08-16T21:56:02.113Z,100984.06
2022-08-16T21:58:29.422Z,100990.41
2022-08-16T22:00:56.314Z,100994.19
2022-08-16T22:03:23.525Z,101003.25
2022-08-16T22:06:12.242Z,101012.31
2022-08-16T22:08:45.615Z,101014.63
2022-08-16T22:11:22.754Z,101007.84
2022-08-16T22:13:57.885Z,101009.59
2022-08-16T22:16:34.457Z,101022.88
2022-08-16T22:19:01.393Z,101012.94
2022-08-16T22:21:28.738Z,101011.28
2022-08-16T22:23:57.394Z,101010.84
2022-08-16T22:26:30.706Z,101015.94
2022-08-16T22:28:59.413Z,101017.38
2022-08-16T22:31:26.103Z,101011.91
2022-08-16T22:33:52.635Z,101013.56
2022-08-16T22:36:19.228Z,101012.53
2022-08-16T22:38:55.981Z,101017.16
2022-08-16T22:41:25.077Z,101004.72
2022-08-16T22:43:52.341Z,101010.66
2022-08-16T22:46:19.604Z,101003.25
2022-08-16T22:48:46.633Z,100999.47
2022-08-16T22:51:13.487Z,101006.63
2022-08-16T22:53:40.034Z,101007.06
2022-08-16T22:56:06.797Z,101004.09
2022-08-16T22:58:36.317Z,101006.22
2022-08-16T23:01:07.873Z,101002.66
2022-08-16T23:03:34.747Z,101017.63
2022-08-16T23:06:01.327Z,101012.56
2022-08-16T23:08:39.168Z,101013.41
2022-08-16T23:11:12.169Z,101010.84
2022-08-16T23:13:52.795Z,101010.44
2022-08-16T23:16:32.507Z,101012.16
2022-08-16T23:19:00.564Z,101010.25
2022-08-16T23:21:27.805Z,101010.47
2022-08-16T23:23:54.331Z,101016.16
2022-08-16T23:26:44.025Z,101010.47
2022-08-16T23:29:07.542Z,101006.69
2022-08-16T23:31:49.139Z,101008.59
2022-08-16T23:34:15.954Z,101016.19
2022-08-16T23:36:42.518Z,101010.06
2022-08-16T23:39:09.058Z,101012.56
2022-08-16T23:41:35.628Z,101009.00
2022-08-16T23:44:02.147Z,101011.31
2022-08-16T23:46:49.356Z,101005.84
2022-08-16T23:50:02.333Z,101003.31
2022-08-16T23:52:09.676Z,101006.03
2022-08-16T23:54:36.423Z,100997.81
2022-08-16T23:57:05.224Z,100986.44
2022-08-16T23:59:34.467Z,100981.38
